Burlington International Airport

Airport
ICAO code: 
KBTV
Summary
ICAO Region: 
NAM
Territory: 
Location: 
Burlington, Vermont,
Coordinates: 
Aerial View: 
44° 28' 9.081" N, 73° 9' 17.06" W
Airport WX: 
Cumulonimbus
Metar
Observation
KBTV 040554Z AUTO 01007KT 10SM CLR M05/M16 A3004 RMK AO2 SLP178 T10501156 11022 21056 50001
Station
Burlington, Burlington International Airport
Date/Time
2021-12-04 05:54:00
Wind direction
10°
Wind speed
07 kts
Lowest cloud amount
n/a
Temperature
-5°C
Dew point
-15.6°C
Humidity
43%
Weather condition
n/a

Description

Burlington International Airport is a joint use civil-military (ANG) airport located 6 km east of the central business district of Burlington in Chittenden County, Vermont.

Climatology

Humid Continental climate (Köppen climate classification Dfb) - Variable weather patterns and a large seasonal temperature variance. Summers are often warm and humid with frequent thunderstorms and winters can be very cold with frequent snowfall and persistent snow cover.

Runways

Designator Length Width Surface Rops
1/19 1101 23 ASP Yes/Yes
15/33 2536 46 ASP Yes/Yes
Airport map: 
Aerial View: 

SKYbrary Partners:

Safety knowledge contributed by: